Time;durP1;ratioP1;P1;durP2;ratioP2;P2;SDS_P1;SDS_P2;PMS_P1;PMS_P2;Temp;Humidity;BMP_temperature;BMP_pressure;BME280_temperature;BME280_humidity;BME280_pressure;Samples;Min_cycle;Max_cycle;Signal;HPM_P1;HPM_P2
2022/01/01 00:02:11;;;;;;;19.20;9.20;;;;;;;12.61;100.00;101088.09;5213499;28;20052;-79
2022/01/01 00:04:42;;;;;;;16.55;9.82;;;;;;;12.61;100.00;101106.44;5213269;28;20044;-79
2022/01/01 00:07:13;;;;;;;59.70;32.75;;;;;;;12.66;100.00;101086.13;5220731;28;20029;-79
2022/01/01 00:09:43;;;;;;;18.60;9.02;;;;;;;12.70;100.00;101093.00;5223641;28;20034;-79
2022/01/01 00:12:14;;;;;;;19.50;11.15;;;;;;;12.65;100.00;101105.41;5227081;28;20019;-79
2022/01/01 00:14:44;;;;;;;18.48;9.95;;;;;;;12.70;100.00;101100.00;5225193;28;20025;-79
2022/01/01 00:17:15;;;;;;;15.70;8.77;;;;;;;12.68;100.00;101105.31;5224510;28;20499;-79
2022/01/01 00:19:45;;;;;;;16.92;9.73;;;;;;;12.62;100.00;101104.69;5220593;28;20080;-79
2022/01/01 00:22:15;;;;;;;17.48;9.38;;;;;;;12.51;100.00;101101.56;5223253;28;20017;-79
2022/01/01 00:24:46;;;;;;;17.85;8.75;;;;;;;12.62;100.00;101097.66;5226965;28;20104;-79
2022/01/01 00:27:16;;;;;;;16.52;8.52;;;;;;;12.58;100.00;101090.81;5218366;28;20029;-79
2022/01/01 00:29:46;;;;;;;17.52;8.25;;;;;;;12.56;100.00;101095.25;5217299;28;20439;-79
2022/01/01 00:32:16;;;;;;;14.45;8.30;;;;;;;12.55;100.00;101093.56;5216364;28;20024;-79
2022/01/01 00:34:47;;;;;;;18.08;8.70;;;;;;;12.56;100.00;101108.38;5218843;28;20017;-79
2022/01/01 00:37:18;;;;;;;16.10;8.77;;;;;;;12.56;100.00;101111.00;5215327;28;20021;-79
2022/01/01 00:39:48;;;;;;;16.10;8.13;;;;;;;12.58;100.00;101110.91;5213475;28;20135;-79
2022/01/01 00:42:18;;;;;;;18.48;8.35;;;;;;;12.49;100.00;101113.88;5213233;28;20036;-79
2022/01/01 00:44:49;;;;;;;14.95;8.23;;;;;;;12.51;100.00;101117.31;5215762;28;20029;-79
2022/01/01 00:47:19;;;;;;;19.98;8.30;;;;;;;12.43;100.00;101109.69;5216408;28;20109;-79
2022/01/01 00:49:49;;;;;;;17.30;8.50;;;;;;;12.46;100.00;101103.50;5215203;28;20021;-79
2022/01/01 00:52:20;;;;;;;14.60;8.00;;;;;;;12.56;100.00;101121.47;5211802;28;20080;-79
2022/01/01 00:54:50;;;;;;;16.27;7.85;;;;;;;12.59;100.00;101116.13;5213422;28;20108;-79
2022/01/01 00:57:20;;;;;;;18.90;8.70;;;;;;;12.53;100.00;101113.72;5212271;28;20036;-79
2022/01/01 00:59:50;;;;;;;14.57;7.82;;;;;;;12.55;100.00;101109.28;5213383;28;20025;-79
2022/01/01 01:02:21;;;;;;;17.23;8.37;;;;;;;12.56;100.00;101116.25;5212685;28;20575;-79
2022/01/01 01:04:51;;;;;;;19.35;8.07;;;;;;;12.65;100.00;101118.53;5227112;28;20792;-79
2022/01/01 01:07:21;;;;;;;13.67;8.17;;;;;;;12.55;100.00;101127.63;5224513;28;20023;-79
2022/01/01 01:09:51;;;;;;;15.48;7.90;;;;;;;12.54;100.00;101131.16;5224600;28;20275;-79
2022/01/01 01:12:26;;;;;;;15.60;8.23;;;;;;;12.54;100.00;101132.91;5215703;28;20025;-79
2022/01/01 01:14:56;;;;;;;14.07;7.30;;;;;;;12.48;100.00;101134.00;5223571;28;20252;-79
2022/01/01 01:17:26;;;;;;;15.52;7.63;;;;;;;12.54;100.00;101139.03;5224994;28;20510;-79
2022/01/01 01:19:57;;;;;;;15.48;7.63;;;;;;;12.57;100.00;101145.94;5215053;28;20409;-79
2022/01/01 01:22:29;;;;;;;15.55;8.32;;;;;;;12.49;100.00;101140.09;5221178;28;20087;-79
2022/01/01 01:25:00;;;;;;;16.02;7.32;;;;;;;12.51;100.00;101127.78;5224138;28;20060;-79
2022/01/01 01:27:31;;;;;;;15.13;8.23;;;;;;;12.48;100.00;101135.78;5223746;28;20030;-79
2022/01/01 01:30:03;;;;;;;14.10;7.55;;;;;;;12.48;100.00;101127.91;5224203;28;20466;-79
2022/01/01 01:32:33;;;;;;;17.70;8.77;;;;;;;12.62;100.00;101141.41;5223087;28;20048;-79
2022/01/01 01:35:05;;;;;;;18.00;8.10;;;;;;;12.49;100.00;101140.09;5223565;28;20502;-79
2022/01/01 01:37:36;;;;;;;14.48;8.63;;;;;;;12.51;100.00;101139.16;5223632;28;20027;-79
2022/01/01 01:40:07;;;;;;;14.32;7.88;;;;;;;12.54;100.00;101144.28;5223064;28;20025;-79
2022/01/01 01:42:37;;;;;;;15.98;7.80;;;;;;;12.49;100.00;101145.34;5223071;28;20028;-79
2022/01/01 01:45:12;;;;;;;15.50;8.43;;;;;;;12.54;100.00;101143.41;5223121;28;20032;-80
2022/01/01 01:47:46;;;;;;;15.00;7.97;;;;;;;12.54;100.00;101141.66;5218998;28;20025;-79
2022/01/01 01:50:19;;;;;;;15.02;8.00;;;;;;;12.48;100.00;101149.72;5217547;28;20024;-79
2022/01/01 01:52:57;;;;;;;15.68;8.70;;;;;;;12.46;100.00;101150.69;5223291;28;20025;-79
2022/01/01 01:55:27;;;;;;;17.90;8.85;;;;;;;12.39;100.00;101144.81;5224171;28;20047;-78
2022/01/01 01:57:58;;;;;;;16.85;8.45;;;;;;;12.41;100.00;101135.13;5223831;28;20598;-79
2022/01/01 02:03:09;;;;;;;16.88;8.07;;;;;;;12.51;100.00;101144.41;5216159;28;20040;-78
2022/01/01 02:05:40;;;;;;;16.73;9.25;;;;;;;12.40;100.00;101150.88;5216250;28;20024;-79
2022/01/01 02:08:11;;;;;;;18.90;9.10;;;;;;;12.38;100.00;101148.34;5223667;28;20029;-79
2022/01/01 02:10:41;;;;;;;14.32;8.63;;;;;;;12.32;100.00;101150.31;5224184;28;20083;-78
2022/01/01 02:13:17;;;;;;;18.50;9.98;;;;;;;12.32;100.00;101158.16;5219027;28;20436;-79
2022/01/01 02:18:21;;;;;;;17.02;9.32;;;;;;;12.33;100.00;101152.84;5220888;28;20402;-79
2022/01/01 02:20:55;;;;;;;19.00;9.20;;;;;;;12.42;100.00;101159.56;5217144;28;20096;-79
2022/01/01 02:23:27;;;;;;;18.17;9.65;;;;;;;12.44;100.00;101169.09;5223716;28;20044;-78
2022/01/01 02:25:57;;;;;;;18.42;10.63;;;;;;;12.40;100.00;101162.25;5219634;28;20029;-78
2022/01/01 02:28:28;;;;;;;19.17;10.18;;;;;;;12.51;100.00;101162.75;5221162;28;20029;-78
2022/01/01 02:30:58;;;;;;;20.47;10.10;;;;;;;12.54;100.00;101165.25;5220091;28;20026;-79
2022/01/01 02:33:31;;;;;;;19.17;10.70;;;;;;;12.43;100.00;101172.63;5224938;28;20830;-79
2022/01/01 02:36:02;;;;;;;20.85;10.32;;;;;;;12.42;100.00;101170.03;5205904;28;20040;-78
2022/01/01 02:38:34;;;;;;;20.92;10.00;;;;;;;12.40;100.00;101172.72;5224574;28;20032;-79
2022/01/01 02:41:04;;;;;;;19.13;10.48;;;;;;;12.36;100.00;101170.25;5215732;28;20029;-79
2022/01/01 02:43:44;;;;;;;18.85;10.20;;;;;;;12.42;100.00;101167.41;5226043;28;20028;-79
2022/01/01 02:46:15;;;;;;;20.95;10.07;;;;;;;12.34;100.00;101167.69;5223449;28;20028;-79
2022/01/01 02:48:45;;;;;;;19.30;9.48;;;;;;;12.36;100.00;101175.50;5217904;28;20032;-79
2022/01/01 02:51:16;;;;;;;16.85;9.85;;;;;;;12.40;100.00;101185.84;5217164;28;20028;-78
2022/01/01 02:53:46;;;;;;;18.83;9.27;;;;;;;12.44;100.00;101190.06;5222963;28;20024;-78
2022/01/01 02:56:16;;;;;;;15.38;8.95;;;;;;;12.36;100.00;101197.34;5218909;28;20507;-79
2022/01/01 02:58:46;;;;;;;16.30;9.23;;;;;;;12.41;100.00;101198.03;5221271;28;20115;-78
2022/01/01 03:01:18;;;;;;;18.27;9.82;;;;;;;12.36;100.00;101197.34;5220757;28;20474;-79
2022/01/01 03:03:48;;;;;;;18.35;10.32;;;;;;;12.53;100.00;101199.38;5222977;28;20045;-79
2022/01/01 03:06:21;;;;;;;20.85;10.23;;;;;;;12.46;100.00;101203.97;5222703;28;20032;-78
2022/01/01 03:08:52;;;;;;;17.42;9.82;;;;;;;12.54;100.00;101201.09;5222684;28;20627;-79
2022/01/01 03:11:23;;;;;;;24.10;10.68;;;;;;;12.43;100.00;101211.94;5222848;28;20028;-78
2022/01/01 03:13:53;;;;;;;23.83;12.98;;;;;;;12.38;100.00;101208.63;5218033;28;20045;-79
2022/01/01 03:16:24;;;;;;;21.97;10.57;;;;;;;12.48;100.00;101194.28;5223020;28;20064;-79
2022/01/01 03:18:54;;;;;;;21.58;10.65;;;;;;;12.46;100.00;101201.34;5216899;28;20287;-79
2022/01/01 03:21:24;;;;;;;20.80;10.52;;;;;;;12.33;100.00;101207.06;5221875;28;20032;-79
2022/01/01 03:23:54;;;;;;;18.15;10.90;;;;;;;12.27;100.00;101210.72;5222021;28;20033;-79
2022/01/01 03:26:25;;;;;;;22.40;11.18;;;;;;;12.39;100.00;101207.72;5216570;28;20025;-79
2022/01/01 03:28:55;;;;;;;17.52;10.40;;;;;;;12.38;100.00;101206.00;5206670;28;20126;-79
2022/01/01 03:31:26;;;;;;;21.85;10.63;;;;;;;12.43;100.00;101214.56;5222453;28;20033;-79
2022/01/01 03:33:58;;;;;;;19.35;10.95;;;;;;;12.46;100.00;101208.38;5222886;28;20083;-79
2022/01/01 03:36:28;;;;;;;18.80;11.38;;;;;;;12.34;100.00;101203.53;5222723;28;20025;-79
2022/01/01 03:38:59;;;;;;;20.02;10.50;;;;;;;12.42;100.00;101198.88;5222467;28;20082;-79
2022/01/01 03:41:30;;;;;;;21.92;11.23;;;;;;;12.37;100.00;101199.06;5204763;28;20028;-79
2022/01/01 03:44:00;;;;;;;20.20;11.07;;;;;;;12.35;100.00;101193.00;5203778;28;20037;-79
2022/01/01 03:46:30;;;;;;;20.95;10.77;;;;;;;12.30;100.00;101199.31;5215954;28;20057;-79
2022/01/01 03:49:01;;;;;;;21.23;11.05;;;;;;;12.30;100.00;101188.81;5221612;28;20087;-79
2022/01/01 03:51:31;;;;;;;24.55;11.48;;;;;;;12.26;100.00;101193.28;5219504;28;20032;-79
2022/01/01 03:54:01;;;;;;;20.67;10.52;;;;;;;12.39;100.00;101185.88;5222351;28;20025;-79
2022/01/01 03:56:32;;;;;;;18.38;10.65;;;;;;;12.40;100.00;101193.69;5221676;28;20487;-78
2022/01/01 03:59:02;;;;;;;21.75;10.50;;;;;;;12.45;100.00;101196.19;5222534;28;20040;-79
2022/01/01 04:01:32;;;;;;;20.55;10.25;;;;;;;12.44;100.00;101194.47;5233689;28;21729;-78
2022/01/01 04:04:03;;;;;;;19.48;10.32;;;;;;;12.55;100.00;101198.44;5231162;28;20068;-78
2022/01/01 04:06:33;;;;;;;19.55;9.40;;;;;;;12.58;100.00;101206.19;5232312;28;20101;-79
2022/01/01 04:09:03;;;;;;;18.55;9.50;;;;;;;12.55;100.00;101198.44;5231076;28;20033;-79
2022/01/01 04:11:34;;;;;;;18.00;9.63;;;;;;;12.49;100.00;101203.03;5233767;28;20542;-80
2022/01/01 04:14:04;;;;;;;16.85;9.75;;;;;;;12.39;100.00;101199.84;5231368;28;20025;-79
2022/01/01 04:16:34;;;;;;;21.30;9.98;;;;;;;12.45;100.00;101186.53;5233926;28;20063;-80
2022/01/01 04:19:05;;;;;;;19.63;9.88;;;;;;;12.43;100.00;101193.59;5219126;28;20116;-79
2022/01/01 04:21:35;;;;;;;17.20;9.32;;;;;;;12.35;100.00;101193.00;5228423;28;20029;-79
2022/01/01 04:24:05;;;;;;;19.30;10.15;;;;;;;12.31;100.00;101194.00;5231062;28;20035;-79
2022/01/01 04:26:36;;;;;;;23.50;9.55;;;;;;;12.42;100.00;101201.50;5233957;28;20055;-80
2022/01/01 04:29:06;;;;;;;16.57;9.37;;;;;;;12.38;100.00;101208.63;5213393;28;20028;-79
2022/01/01 04:31:37;;;;;;;16.92;9.57;;;;;;;12.47;100.00;101218.78;5235721;28;20328;-79
2022/01/01 04:34:07;;;;;;;25.38;9.52;;;;;;;12.43;100.00;101219.81;5234874;28;20059;-79
2022/01/01 04:36:47;;;;;;;16.17;8.85;;;;;;;12.36;100.00;101212.19;5237494;28;20044;-79
2022/01/01 04:39:17;;;;;;;18.58;9.40;;;;;;;12.36;100.00;101220.94;5231490;28;20595;-79
2022/01/01 04:41:47;;;;;;;17.05;9.68;;;;;;;12.41;100.00;101215.50;5238486;28;20103;-79
2022/01/01 04:44:18;;;;;;;19.42;8.77;;;;;;;12.53;100.00;101221.22;5235176;28;20433;-79
2022/01/01 04:46:48;;;;;;;19.67;9.27;;;;;;;12.50;100.00;101213.44;5237659;28;20025;-80
2022/01/01 04:49:18;;;;;;;17.13;8.90;;;;;;;12.44;100.00;101218.91;5220410;28;20112;-79
2022/01/01 04:51:49;;;;;;;20.90;9.35;;;;;;;12.51;100.00;101220.44;5236997;28;20502;-79
2022/01/01 04:54:19;;;;;;;17.40;8.85;;;;;;;12.50;100.00;101213.44;5234383;28;20025;-79
2022/01/01 04:56:50;;;;;;;18.27;9.18;;;;;;;12.42;100.00;101223.34;5237466;28;20028;-78
2022/01/01 04:59:20;;;;;;;21.17;9.57;;;;;;;12.56;100.00;101226.38;5235019;28;20529;-79
2022/01/01 05:01:51;;;;;;;18.30;9.27;;;;;;;12.49;100.00;101227.47;5232096;28;20035;-79
2022/01/01 05:04:21;;;;;;;24.42;9.68;;;;;;;12.47;100.00;101236.31;5227732;28;20036;-79
2022/01/01 05:06:52;;;;;;;17.48;9.00;;;;;;;12.40;100.00;101235.66;5236865;28;20099;-79
2022/01/01 05:09:23;;;;;;;20.50;9.82;;;;;;;12.48;100.00;101238.84;5234306;28;20033;-79
2022/01/01 05:11:53;;;;;;;19.23;9.10;;;;;;;12.51;100.00;101244.03;5235251;28;20032;-79
2022/01/01 05:14:24;;;;;;;18.35;8.88;;;;;;;12.49;100.00;101240.56;5234839;28;20048;-79
2022/01/01 05:16:56;;;;;;;19.25;8.80;;;;;;;12.51;100.00;101249.28;5235919;28;20040;-80
2022/01/01 05:19:26;;;;;;;22.10;9.93;;;;;;;12.49;100.00;101247.59;5222212;28;20033;-79
2022/01/01 05:21:57;;;;;;;21.23;9.43;;;;;;;12.41;100.00;101257.47;5223016;28;20132;-79
2022/01/01 05:24:27;;;;;;;21.17;9.45;;;;;;;12.53;100.00;101260.56;5224652;28;20029;-78
2022/01/01 05:26:57;;;;;;;21.80;8.98;;;;;;;12.56;100.00;101257.84;5224665;28;20438;-79
2022/01/01 05:29:28;;;;;;;18.80;9.40;;;;;;;12.47;100.00;101260.75;5224384;28;20033;-79
2022/01/01 05:31:58;;;;;;;20.13;8.70;;;;;;;12.54;100.00;101253.53;5233058;28;20472;-80
2022/01/01 05:34:28;;;;;;;23.40;9.45;;;;;;;12.49;100.00;101265.94;5235280;28;20383;-79
2022/01/01 05:36:59;;;;;;;19.67;9.45;;;;;;;12.48;100.00;101272.94;5234838;28;20115;-79
2022/01/01 05:39:29;;;;;;;19.30;9.18;;;;;;;12.54;100.00;101259.66;5235083;28;20493;-79
2022/01/01 05:41:59;;;;;;;19.67;9.30;;;;;;;12.50;100.00;101265.88;5234496;28;20078;-79
2022/01/01 05:44:29;;;;;;;20.85;9.65;;;;;;;12.51;100.00;101259.75;5235318;28;20020;-79
2022/01/01 05:47:00;;;;;;;22.70;8.93;;;;;;;12.58;100.00;101266.50;5234765;28;20032;-79
2022/01/01 05:49:30;;;;;;;19.02;8.52;;;;;;;12.57;100.00;101259.56;5220339;28;20029;-79
2022/01/01 05:52:01;;;;;;;21.00;8.73;;;;;;;12.56;100.00;101265.69;5222042;28;20040;-79
2022/01/01 05:54:31;;;;;;;19.45;8.82;;;;;;;12.51;100.00;101270.25;5224865;28;20025;-79
2022/01/01 05:57:02;;;;;;;21.33;9.82;;;;;;;12.46;100.00;101261.66;5224297;28;20048;-80
2022/01/01 05:59:32;;;;;;;19.55;9.45;;;;;;;12.43;100.00;101274.88;5226913;28;20574;-79
2022/01/01 06:02:02;;;;;;;21.13;8.52;;;;;;;12.48;100.00;101265.06;5209644;28;20068;-79
2022/01/01 06:04:32;;;;;;;16.88;8.95;;;;;;;12.41;100.00;101274.06;5223942;28;20040;-79
2022/01/01 06:07:03;;;;;;;19.75;9.05;;;;;;;12.40;100.00;101277.59;5223988;28;20538;-79
2022/01/01 06:09:34;;;;;;;18.70;9.48;;;;;;;12.34;100.00;101263.81;5224370;28;20060;-79
2022/01/01 06:12:04;;;;;;;22.08;9.00;;;;;;;12.30;100.00;101270.91;5224456;28;20372;-79
2022/01/01 06:14:35;;;;;;;18.00;8.70;;;;;;;12.37;100.00;101280.31;5225860;28;20044;-80
2022/01/01 06:17:05;;;;;;;20.33;9.52;;;;;;;12.33;100.00;101269.97;5219080;28;20068;-79
2022/01/01 06:19:35;;;;;;;21.48;9.18;;;;;;;12.34;100.00;101274.31;5219189;28;20068;-79
2022/01/01 06:22:05;;;;;;;17.48;8.48;;;;;;;12.24;100.00;101278.97;5220662;28;20035;-80
2022/01/01 06:24:36;;;;;;;19.42;9.20;;;;;;;12.26;100.00;101282.41;5224037;28;20033;-79
2022/01/01 06:27:06;;;;;;;19.10;9.43;;;;;;;12.27;100.00;101285.91;5221223;28;20032;-79
2022/01/01 06:29:36;;;;;;;20.73;9.73;;;;;;;12.37;100.00;101288.19;5221621;28;20120;-79
2022/01/01 06:32:07;;;;;;;18.55;8.85;;;;;;;12.21;100.00;101297.41;5205835;28;20494;-79
2022/01/01 06:34:37;;;;;;;19.85;9.38;;;;;;;12.23;100.00;101297.34;5223104;28;20017;-79
2022/01/01 06:37:08;;;;;;;15.55;8.15;;;;;;;12.33;100.00;101302.25;5223132;28;20024;-79
2022/01/01 06:39:38;;;;;;;20.25;9.07;;;;;;;12.45;100.00;101311.53;5223374;28;20033;-79
2022/01/01 06:42:09;;;;;;;19.20;8.77;;;;;;;12.36;100.00;101314.44;5223116;28;20053;-79
2022/01/01 06:44:39;;;;;;;19.08;8.40;;;;;;;12.35;100.00;101310.09;5223861;28;20036;-79
2022/01/01 06:47:10;;;;;;;16.13;8.75;;;;;;;12.33;100.00;101318.00;5222623;28;20074;-79
2022/01/01 06:49:40;;;;;;;18.40;9.13;;;;;;;12.18;100.00;101323.72;5219336;28;20025;-79
2022/01/01 06:52:10;;;;;;;21.58;9.00;;;;;;;12.20;100.00;101329.78;5220815;28;20025;-79
2022/01/01 06:54:41;;;;;;;24.08;10.13;;;;;;;12.33;100.00;101332.88;5204869;28;20021;-79
2022/01/01 06:57:11;;;;;;;20.83;10.10;;;;;;;12.25;100.00;101340.09;5219418;28;20626;-79
2022/01/01 06:59:41;;;;;;;21.83;9.93;;;;;;;12.29;100.00;101342.59;5220210;28;20028;-79
2022/01/01 07:02:11;;;;;;;19.58;10.27;;;;;;;12.23;100.00;101348.03;5222958;28;20025;-79
2022/01/01 07:04:42;;;;;;;20.10;10.52;;;;;;;12.14;100.00;101353.53;5221960;28;20084;-79
2022/01/01 07:07:13;;;;;;;20.43;11.10;;;;;;;12.16;100.00;101351.72;5219938;28;20082;-79
2022/01/01 07:09:43;;;;;;;19.60;11.07;;;;;;;12.23;100.00;101350.66;5223077;28;20341;-79
2022/01/01 07:12:13;;;;;;;22.20;11.32;;;;;;;12.20;100.00;101348.13;5222909;28;20017;-79
2022/01/01 07:14:44;;;;;;;20.48;10.90;;;;;;;12.32;100.00;101352.13;5201166;28;20008;-80
2022/01/01 07:17:14;;;;;;;25.85;11.82;;;;;;;12.21;100.00;101351.59;5223883;28;20036;-80
2022/01/01 07:19:44;;;;;;;28.95;12.13;;;;;;;12.16;100.00;101356.94;5220215;28;20044;-79
2022/01/01 07:22:14;;;;;;;26.73;11.93;;;;;;;12.17;100.00;101350.84;5219217;28;20029;-80
2022/01/01 07:24:45;;;;;;;26.97;13.73;;;;;;;12.14;100.00;101355.31;5222535;28;20290;-80
2022/01/01 07:27:17;;;;;;;27.20;12.98;;;;;;;12.23;100.00;101350.66;5223432;28;20310;-80
2022/01/01 07:29:47;;;;;;;23.65;12.35;;;;;;;12.20;100.00;101355.09;5224739;28;20112;-80
2022/01/01 07:32:17;;;;;;;26.17;13.50;;;;;;;12.22;100.00;101353.28;5223982;28;20547;-80
2022/01/01 07:34:48;;;;;;;26.42;13.23;;;;;;;12.19;100.00;101362.13;5224642;28;20112;-80
2022/01/01 07:37:18;;;;;;;24.95;13.13;;;;;;;12.23;100.00;101363.75;5224297;28;20052;-80
2022/01/01 07:39:48;;;;;;;24.20;13.37;;;;;;;12.18;100.00;101370.91;5225097;28;20255;-80
2022/01/01 07:42:19;;;;;;;24.55;12.68;;;;;;;12.17;100.00;101363.06;5224665;28;20329;-80
2022/01/01 07:44:49;;;;;;;34.38;14.02;;;;;;;12.26;100.00;101376.75;5224084;28;20033;-80
2022/01/01 07:47:19;;;;;;;26.52;14.65;;;;;;;12.20;100.00;101374.31;5224849;28;20140;-80
2022/01/01 07:49:49;;;;;;;27.05;14.23;;;;;;;12.21;100.00;101383.03;5220130;28;20466;-80
2022/01/01 07:52:20;;;;;;;28.00;14.00;;;;;;;12.20;100.00;101387.44;5220036;28;20029;-79
2022/01/01 07:54:50;;;;;;;30.15;13.32;;;;;;;12.24;100.00;101380.31;5220022;28;20121;-80
2022/01/01 07:57:20;;;;;;;27.38;14.35;;;;;;;12.38;100.00;101389.50;5218003;28;20037;-80
2022/01/01 07:59:51;;;;;;;25.80;13.00;;;;;;;12.38;100.00;101392.13;5223311;28;20823;-80
2022/01/01 08:02:21;;;;;;;26.47;13.00;;;;;;;12.27;100.00;101391.56;5198166;28;20321;-79
2022/01/01 08:04:51;;;;;;;25.20;13.00;;;;;;;12.41;100.00;101389.41;5226265;28;20314;-80
2022/01/01 08:07:21;;;;;;;30.55;14.05;;;;;;;12.31;100.00;101403.69;5221470;28;20290;-80
2022/01/01 08:09:52;;;;;;;26.70;12.43;;;;;;;12.32;100.00;101405.41;5226839;28;20040;-80
2022/01/01 08:12:22;;;;;;;29.77;13.10;;;;;;;12.24;100.00;101394.28;5227580;28;20295;-80
2022/01/01 08:14:56;;;;;;;25.93;13.10;;;;;;;12.25;100.00;101403.00;5227664;28;20275;-80
2022/01/01 08:17:27;;;;;;;26.50;12.73;;;;;;;12.21;100.00;101411.84;5204472;28;20322;-80
2022/01/01 08:20:00;;;;;;;29.00;12.98;;;;;;;12.17;100.00;101416.34;5223506;28;20561;-79
2022/01/01 08:22:31;;;;;;;30.90;14.35;;;;;;;12.36;100.00;101407.06;5233133;28;20033;-80
2022/01/01 08:25:01;;;;;;;27.38;13.63;;;;;;;12.37;100.00;101406.16;5237381;28;20090;-79
2022/01/01 08:27:32;;;;;;;30.17;15.05;;;;;;;12.42;100.00;101411.22;5229107;28;20037;-80
2022/01/01 08:30:03;;;;;;;28.17;14.77;;;;;;;12.45;100.00;101414.63;5224376;28;20751;-80
2022/01/01 08:32:33;;;;;;;28.42;13.75;;;;;;;12.38;100.00;101410.47;5209698;28;20066;-79
2022/01/01 08:35:04;;;;;;;25.63;14.13;;;;;;;12.33;100.00;101407.09;5227295;28;20541;-80
2022/01/01 08:37:34;;;;;;;33.22;14.32;;;;;;;12.38;100.00;101420.97;5219017;28;20031;-80
2022/01/01 08:40:06;;;;;;;28.63;13.98;;;;;;;12.38;100.00;101420.09;5236811;28;20074;-80
2022/01/01 08:42:36;;;;;;;25.48;13.48;;;;;;;12.38;100.00;101415.72;5239819;28;20619;-80
2022/01/01 08:45:07;;;;;;;27.40;13.65;;;;;;;12.39;100.00;101416.56;5236692;28;20119;-80
2022/01/01 08:47:37;;;;;;;29.67;14.38;;;;;;;12.41;100.00;101420.88;5237116;28;20031;-80
2022/01/01 08:50:08;;;;;;;27.45;14.00;;;;;;;12.39;100.00;101432.28;5216052;28;20030;-80
2022/01/01 08:52:39;;;;;;;24.20;12.85;;;;;;;12.38;100.00;101427.97;5227656;28;20032;-80
2022/01/01 08:55:10;;;;;;;27.73;14.18;;;;;;;12.39;100.00;101427.94;5228652;28;20478;-80
2022/01/01 08:57:41;;;;;;;27.02;13.80;;;;;;;12.42;100.00;101421.72;5223918;28;20034;-79
2022/01/01 09:00:12;;;;;;;28.95;13.23;;;;;;;12.42;100.00;101433.06;5226972;28;20048;-79
2022/01/01 09:02:43;;;;;;;26.83;13.38;;;;;;;12.39;100.00;101427.94;5226205;28;20029;-80
2022/01/01 09:05:13;;;;;;;25.15;13.45;;;;;;;12.39;100.00;101435.78;5227059;28;20051;-80
2022/01/01 09:07:43;;;;;;;20.35;12.55;;;;;;;12.39;100.00;101434.91;5224739;28;20036;-80
2022/01/01 09:10:15;;;;;;;27.52;13.63;;;;;;;12.48;100.00;101435.50;5205483;28;20096;-80
2022/01/01 09:12:45;;;;;;;27.90;13.25;;;;;;;12.54;100.00;101432.72;5225180;28;20028;-80
2022/01/01 09:15:15;;;;;;;25.25;13.38;;;;;;;12.49;100.00;101449.50;5226824;28;20021;-80
2022/01/01 09:17:46;;;;;;;25.83;12.77;;;;;;;12.54;100.00;101453.69;5221805;28;20028;-80
2022/01/01 09:20:16;;;;;;;28.27;13.13;;;;;;;12.48;100.00;101453.00;5213038;28;20040;-80
2022/01/01 09:22:46;;;;;;;25.33;12.43;;;;;;;12.56;100.00;101448.38;5228024;28;20084;-80
2022/01/01 09:25:16;;;;;;;25.00;11.95;;;;;;;12.49;100.00;101452.94;5228018;28;20025;-80
2022/01/01 09:27:47;;;;;;;24.98;12.20;;;;;;;12.62;100.00;101450.84;5209843;28;20120;-80
2022/01/01 09:30:18;;;;;;;19.13;10.82;;;;;;;12.58;100.00;101465.81;5221590;28;20048;-80
2022/01/01 09:32:48;;;;;;;22.02;11.68;;;;;;;12.61;100.00;101465.72;5230399;28;20029;-80
2022/01/01 09:35:19;;;;;;;18.70;10.73;;;;;;;12.63;100.00;101461.28;5221784;28;20062;-80
2022/01/01 09:37:49;;;;;;;27.38;11.38;;;;;;;12.64;100.00;101464.78;5223599;28;20109;-80
2022/01/01 09:40:19;;;;;;;24.43;11.43;;;;;;;12.67;100.00;101460.28;5224919;28;20428;-80
2022/01/01 09:42:52;;;;;;;21.15;10.20;;;;;;;12.66;100.00;101469.06;5226004;28;20267;-80
2022/01/01 09:45:22;;;;;;;20.60;10.25;;;;;;;12.75;100.00;101467.91;5226410;28;20547;-80
2022/01/01 09:47:53;;;;;;;17.95;10.32;;;;;;;12.80;100.00;101473.91;5225905;28;20139;-80
2022/01/01 09:50:23;;;;;;;22.38;10.18;;;;;;;12.85;100.00;101470.22;5221117;28;20525;-80
2022/01/01 09:52:53;;;;;;;16.75;9.00;;;;;;;12.92;100.00;101471.75;5222855;28;20711;-80
2022/01/01 09:55:24;;;;;;;20.48;9.25;;;;;;;12.89;100.00;101471.84;5227469;28;20028;-80
2022/01/01 09:57:54;;;;;;;22.75;8.35;;;;;;;12.97;100.00;101469.03;5227759;28;20032;-80
2022/01/01 10:00:24;;;;;;;18.40;8.50;;;;;;;12.91;100.00;101475.28;5227850;28;20032;-80
2022/01/01 10:02:55;;;;;;;18.95;8.63;;;;;;;12.97;100.00;101484.78;5226884;28;20315;-80
2022/01/01 10:05:26;;;;;;;15.02;8.20;;;;;;;13.04;100.00;101477.50;5227548;28;20029;-80
2022/01/01 10:08:00;;;;;;;14.77;7.88;;;;;;;13.07;100.00;101476.56;5222403;28;20040;-80
2022/01/01 10:10:33;;;;;;;24.23;9.00;;;;;;;13.10;100.00;101481.72;5227998;28;20025;-80
2022/01/01 10:13:11;;;;;;;14.10;7.85;;;;;;;13.08;100.00;101484.38;5227701;28;21228;-80
2022/01/01 10:15:41;;;;;;;18.27;8.05;;;;;;;13.15;100.00;101474.53;5216080;28;20036;-80
2022/01/01 10:18:12;;;;;;;17.95;8.27;;;;;;;13.27;100.00;101480.25;5220110;28;20025;-80
2022/01/01 10:20:44;;;;;;;20.67;8.43;;;;;;;13.19;100.00;101478.78;5208517;28;20029;-80
2022/01/01 10:23:16;;;;;;;18.70;8.05;;;;;;;13.33;100.00;101484.47;5225433;28;20031;-80
2022/01/01 10:28:35;;;;;;;18.20;8.23;;;;;;;13.42;100.00;101479.75;5225935;28;20063;-81
2022/01/01 10:31:08;;;;;;;18.42;8.80;;;;;;;13.51;100.00;101486.47;5229159;28;20068;-80
2022/01/01 10:33:44;;;;;;;19.92;9.18;;;;;;;13.52;100.00;101478.56;5217525;28;20025;-80
2022/01/01 10:36:18;;;;;;;21.73;9.18;;;;;;;13.43;100.00;101480.63;5222149;28;20100;-81
2022/01/01 10:38:50;;;;;;;20.90;9.95;;;;;;;13.61;100.00;101480.03;5225725;28;20027;-80
2022/01/01 10:41:20;;;;;;;15.30;9.02;;;;;;;13.71;100.00;101486.72;5217881;28;20660;-80
2022/01/01 10:43:52;;;;;;;16.75;8.80;;;;;;;13.67;100.00;101475.44;5224215;28;20032;-80
2022/01/01 10:46:22;;;;;;;18.25;8.82;;;;;;;13.70;100.00;101479.69;5223793;28;20032;-80
2022/01/01 10:48:57;;;;;;;17.93;8.53;;;;;;;13.72;100.00;101472.66;5220904;28;20071;-80
2022/01/01 10:51:36;;;;;;;16.17;8.57;;;;;;;13.82;100.00;101464.41;5219365;28;20284;-80
2022/01/01 10:54:10;;;;;;;19.90;9.02;;;;;;;13.84;100.00;101472.22;5222110;28;20040;-80
2022/01/01 10:56:40;;;;;;;18.25;8.45;;;;;;;13.87;100.00;101475.59;5225764;28;20033;-81
2022/01/01 10:59:11;;;;;;;20.08;8.38;;;;;;;13.75;100.00;101469.91;5215638;28;20025;-80
2022/01/01 11:01:43;;;;;;;18.50;8.73;;;;;;;13.82;100.00;101453.00;5233204;28;20050;-80
2022/01/01 11:04:14;;;;;;;19.35;8.30;;;;;;;13.91;100.00;101448.28;5222981;28;20073;-81
2022/01/01 11:06:46;;;;;;;18.70;7.88;;;;;;;13.82;100.00;101453.00;5220564;28;20132;-80
2022/01/01 11:09:17;;;;;;;15.30;7.80;;;;;;;13.85;100.00;101448.53;5222014;28;20043;-81
2022/01/01 11:11:48;;;;;;;15.43;7.72;;;;;;;13.91;100.00;101453.56;5222490;28;20140;-81
2022/01/01 11:14:19;;;;;;;15.27;7.88;;;;;;;13.98;100.00;101457.69;5222789;28;20021;-80
2022/01/01 11:16:49;;;;;;;18.10;8.18;;;;;;;14.10;100.00;101459.88;5220447;28;20534;-80
2022/01/01 11:19:22;;;;;;;19.92;8.63;;;;;;;13.97;100.00;101461.25;5221457;28;20018;-80
2022/01/01 11:21:53;;;;;;;17.08;8.48;;;;;;;13.98;100.00;101459.44;5218190;28;20036;-81
2022/01/01 11:24:25;;;;;;;15.48;7.47;;;;;;;13.91;100.00;101461.44;5224358;28;20021;-80
2022/01/01 11:26:55;;;;;;;17.02;7.93;;;;;;;13.85;100.00;101463.41;5223589;28;20477;-80
2022/01/01 11:29:26;;;;;;;15.63;8.15;;;;;;;13.85;100.00;101456.41;5224482;28;20052;-80
2022/01/01 11:31:58;;;;;;;13.88;7.50;;;;;;;13.97;100.00;101452.47;5217224;28;20056;-80